createdAt,value
2024-05-09T00:00:36.407Z,6.80
2024-05-09T00:10:35.976Z,6.51
2024-05-09T00:20:37.452Z,5.68
2024-05-09T00:30:34.521Z,8.61
2024-05-09T00:40:37.685Z,8.66
2024-05-09T00:50:35.836Z,6.06
2024-05-09T01:00:36.033Z,6.37
2024-05-09T01:10:34.444Z,6.28
2024-05-09T01:20:39.590Z,5.19
2024-05-09T01:30:34.782Z,6.11
2024-05-09T01:40:37.101Z,6.25
2024-05-09T01:50:37.975Z,6.89
2024-05-09T02:00:37.335Z,4.42
2024-05-09T02:10:32.740Z,5.73
2024-05-09T02:20:35.542Z,5.63
2024-05-09T02:30:38.146Z,5.99
2024-05-09T02:40:36.605Z,6.98
2024-05-09T02:50:36.980Z,6.61
2024-05-09T03:00:37.582Z,5.45
2024-05-09T03:10:35.555Z,8.15
2024-05-09T03:20:34.229Z,4.80
2024-05-09T03:30:38.983Z,5.36
2024-05-09T03:40:31.094Z,5.22
2024-05-09T03:50:34.018Z,5.00
2024-05-09T04:00:37.352Z,8.93
2024-05-09T04:10:33.410Z,5.76
2024-05-09T04:20:37.546Z,8.09
2024-05-09T04:30:37.490Z,6.72
2024-05-09T04:40:34.196Z,6.15
2024-05-09T04:50:36.435Z,6.90
2024-05-09T05:00:35.946Z,5.68
2024-05-09T05:10:35.687Z,6.48
2024-05-09T05:20:33.633Z,5.96
2024-05-09T05:30:34.486Z,7.19
2024-05-09T05:40:36.228Z,5.73
2024-05-09T05:50:35.701Z,7.82
2024-05-09T06:00:37.497Z,8.22
2024-05-09T06:10:37.554Z,10.45
2024-05-09T06:20:36.244Z,6.20
2024-05-09T06:30:37.460Z,8.63
2024-05-09T06:40:36.751Z,8.09
2024-05-09T06:50:36.840Z,6.00
2024-05-09T07:00:35.978Z,6.61
2024-05-09T07:10:34.820Z,6.94
2024-05-09T07:20:34.563Z,8.29
2024-05-09T07:30:33.590Z,7.35
2024-05-09T07:40:35.822Z,7.42
2024-05-09T08:00:31.823Z,7.15
2024-05-09T08:10:31.332Z,10.11
2024-05-09T08:20:35.078Z,6.88
2024-05-09T08:30:36.527Z,7.21
2024-05-09T08:40:35.227Z,6.61
2024-05-09T08:50:37.911Z,6.13
2024-05-09T09:00:36.724Z,4.92
2024-05-09T09:10:32.427Z,5.60
2024-05-09T09:20:36.266Z,3.24
2024-05-09T09:30:36.588Z,5.19
2024-05-09T09:40:33.021Z,6.07
2024-05-09T09:50:34.543Z,4.72
2024-05-09T10:00:33.353Z,5.53
2024-05-09T10:10:32.989Z,3.60
2024-05-09T10:20:32.824Z,4.52
2024-05-09T10:30:35.935Z,4.78
2024-05-09T10:40:31.992Z,6.46
2024-05-09T10:50:34.214Z,4.13
2024-05-09T11:00:35.732Z,5.16
2024-05-09T11:10:34.089Z,6.00
2024-05-09T11:20:34.827Z,5.72
2024-05-09T11:30:32.749Z,6.47
2024-05-09T11:50:34.956Z,7.07
2024-05-09T12:00:36.589Z,7.94
2024-05-09T12:10:33.642Z,5.31
2024-05-09T12:20:36.544Z,5.85
2024-05-09T12:30:36.615Z,7.07
2024-05-09T12:40:36.064Z,6.84
2024-05-09T12:50:33.284Z,7.86
2024-05-09T13:00:33.774Z,7.05
2024-05-09T13:10:32.753Z,7.79
2024-05-09T13:20:33.624Z,8.08
2024-05-09T13:30:38.803Z,6.50
2024-05-09T13:40:34.327Z,6.49
2024-05-09T13:50:34.645Z,7.36
2024-05-09T14:00:42.134Z,6.01
2024-05-09T14:10:31.929Z,7.01
2024-05-09T14:20:32.122Z,8.81
2024-05-09T14:30:36.481Z,7.94
2024-05-09T14:40:39.291Z,7.67
2024-05-09T14:50:36.009Z,7.90
2024-05-09T15:00:35.646Z,8.28
2024-05-09T15:10:34.817Z,7.72
2024-05-09T15:20:34.872Z,11.06
2024-05-09T15:30:32.985Z,8.20
2024-05-09T15:40:37.624Z,8.39
2024-05-09T15:50:37.143Z,8.89
2024-05-09T16:00:37.353Z,9.29
2024-05-09T16:10:33.062Z,8.61
2024-05-09T16:20:38.769Z,8.99
2024-05-09T16:30:34.942Z,11.17
2024-05-09T16:40:37.343Z,10.05
2024-05-09T16:50:33.331Z,11.35
2024-05-09T17:00:38.877Z,10.62
2024-05-09T17:10:33.694Z,10.47
2024-05-09T17:20:34.600Z,9.67
2024-05-09T17:30:35.402Z,10.01
2024-05-09T17:40:34.011Z,8.52
2024-05-09T17:50:35.675Z,9.26
2024-05-09T18:00:37.787Z,8.54
2024-05-09T18:10:36.431Z,8.25
2024-05-09T18:20:39.369Z,8.65
2024-05-09T18:30:34.963Z,7.88
2024-05-09T18:40:34.650Z,8.09
2024-05-09T18:50:35.675Z,7.41
2024-05-09T19:00:35.322Z,7.85
2024-05-09T19:10:34.436Z,6.14
2024-05-09T19:20:34.492Z,6.98
2024-05-09T19:30:38.217Z,7.45
2024-05-09T19:40:32.788Z,5.55
2024-05-09T19:50:37.388Z,7.49
2024-05-09T20:00:35.698Z,7.93
2024-05-09T20:10:33.267Z,7.05
2024-05-09T20:20:37.453Z,7.65
2024-05-09T20:30:33.034Z,6.40
2024-05-09T20:40:35.058Z,7.54
2024-05-09T20:50:38.252Z,5.87
2024-05-09T21:00:38.662Z,6.45
2024-05-09T21:10:33.272Z,6.23
2024-05-09T21:20:32.320Z,5.89
2024-05-09T21:30:38.668Z,7.15
2024-05-09T21:40:34.532Z,7.38
2024-05-09T21:50:37.064Z,7.94
2024-05-09T22:00:36.353Z,6.43
2024-05-09T22:10:34.383Z,6.63
2024-05-09T22:20:36.828Z,5.80
2024-05-09T22:30:36.350Z,5.94
2024-05-09T22:40:39.137Z,6.50
2024-05-09T22:50:33.065Z,7.07
2024-05-09T23:00:32.556Z,6.87
2024-05-09T23:10:36.129Z,4.95
2024-05-09T23:20:37.037Z,5.17
2024-05-09T23:30:37.435Z,6.36
2024-05-09T23:40:38.173Z,5.09
2024-05-09T23:50:35.100Z,5.63
